Holyoke, CO

11:41 PM MDT on September 15, 2014 (GMT -0600)
Holyoke Municipal | Change Station
CLOSE
Current Station
Airport
Location: Holyoke AP, Holyoke, CO,
Elevation: 3730 ft
Nearby Weather Stations

Elev 3730 ft 40.57 °N, 102.28 °W | Updated 6 minutes ago

Clear
Clear
54 °F
Feels Like 54 °F
N
8
Wind Variable Wind from South

Today
High -- | Low -- °F
--% Chance of Precip.
Yesterday
High -- | Low -- °F
Precip. -- in
6:29 AM 6:58 PM
Waning Gibbous, 49% visible
Pressure 30.23 in
Visibility 10.0 miles
Clouds Clear
Dew Point 48 °F
Humidity 82%
Rainfall 0.00 in
Snow Depth 1 in , 0 in , 0 in
UV 0 out of 12
Pollen 5.70 out of 12
Air Quality Not available.
Flu Activity Not available.
METAR KHEQ 160535Z AUTO 17007KT 10SM CLR 12/09 A3023 RMK AO2

More Conditions Fewer Conditions

Pressure 30.23 in
Visibility 10.0 miles
Clouds Clear
Dew Point 48 °F
Humidity 82%
Rainfall 0.00 in
Snow Depth 1 in , 0 in , 0 in
UV 0 out of 12
Pollen 5.70 out of 12
Air Quality Not available.
Flu Activity Not available.
METAR KHEQ 160535Z AUTO 17007KT 10SM CLR 12/09 A3023 RMK AO2

More Conditions Fewer Conditions

10-Day Weather Forecast

Almanac

Astronomy

Sep. 15, 2014 Rise Set
Actual Time 6:29 AM MDT 6:58 PM MDT
Civil Twilight 6:02 AM MDT 7:25 PM MDT
Nautical Twilight 5:30 AM MDT 7:57 PM MDT
Astronomical Twilight 4:57 AM MDT 8:30 PM MDT
Moon 11:41 PM MDT (9/15) 1:33 PM MDT (9/15)
Length of Visible Light 13h 22m
Length of Day
12h 28m
Tomorrow will be 2m 39s shorter.
Waning Gibbous, 49% of the Moon is Illuminated
Sep 16
Waning Gibbous
Sep 24
New
Oct 1
First Quarter
Oct 8
Full
Oct 15
Last Quarter

Yesterday's Extremes

State Highs State Lows

Community

WunderPhotos

Upload Photos

1,753,702 photos uploaded!

Nearby

Snow Depth

Station Depth Elevation
Schofield Pass 1 in 10700 ft
Copper Mountain 0 in 10500 ft
Overland Reservoir 0 in 9880 ft
Brumley 0 in 10600 ft
Whiskey Creek 0 in 10220 ft

Earthquake Activity

City Distance Mag. Time & Date
No recent earthquake activity has been reported nearby.
Minimum magnitude displayed is 2.5.

Coastal Water Temperatures

Place Temperature
No Stations Reporting

Nearby Weather Stations